Time;durP1;ratioP1;P1;durP2;ratioP2;P2;SDS_P1;SDS_P2;PMS_P1;PMS_P2;Temp;Humidity;BMP_temperature;BMP_pressure;BME280_temperature;BME280_humidity;BME280_pressure;Samples;Min_cycle;Max_cycle;Signal;HPM_P1;HPM_P2
2021/12/14 00:00:13;;;;;;;1.40;0.30;;;;;;;;;;5010150;28;20049;-70
2021/12/14 00:02:40;;;;;;;0.57;0.20;;;;;;;;;;4994580;28;20166;-70
2021/12/14 00:05:05;;;;;;;0.98;0.10;;;;;;;;;;4974353;28;20541;-69
2021/12/14 00:07:30;;;;;;;0.65;0.30;;;;;;;;;;4973990;28;20026;-69
2021/12/14 00:10:10;;;;;;;0.15;0.10;;;;;;;;;;4990586;28;20027;-69
2021/12/14 00:12:42;;;;;;;0.40;0.10;;;;;;;;;;4990299;28;20482;-70
2021/12/14 00:15:12;;;;;;;0.85;0.20;;;;;;;;;;4990376;28;20057;-69
2021/12/14 00:17:40;;;;;;;0.52;0.22;;;;;;;;;;4990239;28;20240;-70
2021/12/14 00:20:08;;;;;;;0.10;0.10;;;;;;;;;;4990220;28;20033;-70
2021/12/14 00:25:17;;;;;;;0.63;0.20;;;;;;;;;;4994545;28;20634;-69
2021/12/14 00:27:42;;;;;;;2.10;0.17;;;;;;;;;;5010714;28;20048;-70
2021/12/14 00:30:08;;;;;;;1.50;0.10;;;;;;;;;;5056331;28;20252;-70
2021/12/14 00:32:36;;;;;;;1.05;0.20;;;;;;;;;;5054554;28;20285;-70
2021/12/14 00:35:03;;;;;;;0.20;0.00;;;;;;;;;;5056010;28;20023;-70
2021/12/14 00:37:30;;;;;;;0.30;0.10;;;;;;;;;;5055748;28;20033;-70
2021/12/14 00:39:57;;;;;;;1.08;0.13;;;;;;;;;;5055847;28;20064;-69
2021/12/14 00:42:22;;;;;;;0.93;0.13;;;;;;;;;;5055730;28;20048;-69
2021/12/14 00:44:48;;;;;;;0.43;0.20;;;;;;;;;;5055697;28;20025;-70
2021/12/14 00:47:14;;;;;;;0.75;0.30;;;;;;;;;;5037947;28;20071;-69
2021/12/14 00:49:39;;;;;;;0.73;0.17;;;;;;;;;;5054216;28;20037;-70
2021/12/14 00:52:05;;;;;;;0.63;0.10;;;;;;;;;;5055621;28;20036;-70
2021/12/14 00:54:31;;;;;;;0.20;0.10;;;;;;;;;;5055361;28;20029;-70
2021/12/14 00:56:56;;;;;;;0.52;0.10;;;;;;;;;;5055561;28;20462;-70
2021/12/14 00:59:21;;;;;;;0.10;0.10;;;;;;;;;;5055510;28;20028;-69
2021/12/14 01:01:53;;;;;;;0.10;0.10;;;;;;;;;;5055262;28;20096;-70
2021/12/14 01:04:24;;;;;;;0.73;0.20;;;;;;;;;;5055428;28;20060;-69
2021/12/14 01:06:49;;;;;;;0.15;0.13;;;;;;;;;;5054082;28;20039;-70
2021/12/14 01:09:17;;;;;;;1.17;0.25;;;;;;;;;;5055470;28;20041;-71
2021/12/14 01:11:46;;;;;;;0.73;0.20;;;;;;;;;;5055130;28;20048;-69
2021/12/14 01:14:17;;;;;;;0.32;0.10;;;;;;;;;;5055173;28;20009;-69
2021/12/14 01:16:51;;;;;;;0.30;0.10;;;;;;;;;;5055203;28;20024;-70
2021/12/14 01:19:23;;;;;;;1.20;0.20;;;;;;;;;;5055170;28;20024;-70
2021/12/14 01:25:03;;;;;;;0.57;0.20;;;;;;;;;;5055289;28;20025;-70
2021/12/14 01:27:12;;;;;;;0.32;0.10;;;;;;;;;;5044238;28;20037;-70
2021/12/14 01:29:38;;;;;;;0.43;0.08;;;;;;;;;;5070142;28;20449;-71
2021/12/14 01:32:04;;;;;;;1.35;0.13;;;;;;;;;;5054889;28;20021;-70
2021/12/14 01:34:31;;;;;;;0.52;0.00;;;;;;;;;;5053927;28;20522;-69
2021/12/14 01:36:59;;;;;;;0.57;0.20;;;;;;;;;;5054908;28;20457;-69
2021/12/14 01:41:57;;;;;;;0.65;0.20;;;;;;;;;;5055114;28;20021;-70
2021/12/14 01:44:23;;;;;;;0.10;0.07;;;;;;;;;;5054838;28;20032;-70
2021/12/14 01:46:55;;;;;;;0.88;0.10;;;;;;;;;;5054626;28;20025;-70
2021/12/14 01:49:22;;;;;;;0.20;0.00;;;;;;;;;;5054525;28;20036;-70
2021/12/14 01:51:49;;;;;;;0.95;0.20;;;;;;;;;;5054544;28;20033;-69
2021/12/14 01:54:16;;;;;;;0.43;0.10;;;;;;;;;;5054395;28;20095;-70
2021/12/14 01:56:41;;;;;;;0.32;0.10;;;;;;;;;;5054415;28;20131;-69
2021/12/14 01:59:09;;;;;;;0.55;0.10;;;;;;;;;;5054744;28;20463;-70
2021/12/14 02:01:46;;;;;;;0.45;0.10;;;;;;;;;;5064466;22;20431;-68
2021/12/14 02:04:14;;;;;;;1.05;0.10;;;;;;;;;;5011720;28;20034;-70
2021/12/14 02:06:39;;;;;;;0.30;0.10;;;;;;;;;;5014485;28;20038;-70
2021/12/14 02:09:07;;;;;;;0.20;0.10;;;;;;;;;;5030047;28;20033;-70
2021/12/14 02:11:33;;;;;;;0.90;0.20;;;;;;;;;;5014334;28;20038;-70
2021/12/14 02:13:58;;;;;;;0.82;0.30;;;;;;;;;;5014488;28;20034;-69
2021/12/14 02:16:24;;;;;;;0.68;0.20;;;;;;;;;;5014331;28;20101;-70
2021/12/14 02:18:51;;;;;;;0.40;0.10;;;;;;;;;;5014445;28;20041;-69
2021/12/14 02:21:17;;;;;;;0.30;0.10;;;;;;;;;;5014242;28;20065;-69
2021/12/14 02:23:44;;;;;;;0.52;0.20;;;;;;;;;;5029355;28;20030;-69
2021/12/14 02:26:11;;;;;;;0.77;0.28;;;;;;;;;;5014230;28;20021;-69
2021/12/14 02:28:37;;;;;;;0.55;0.10;;;;;;;;;;5014058;28;20030;-70
2021/12/14 02:31:03;;;;;;;0.15;0.10;;;;;;;;;;5014170;28;20025;-69
2021/12/14 02:33:32;;;;;;;0.00;0.00;;;;;;;;;;5012546;28;20113;-69
2021/12/14 02:35:58;;;;;;;0.00;0.00;;;;;;;;;;5014175;28;20018;-69
2021/12/14 02:38:26;;;;;;;0.20;0.10;;;;;;;;;;5013867;28;20506;-69
2021/12/14 02:40:53;;;;;;;1.10;0.45;;;;;;;;;;5013980;28;20029;-69
2021/12/14 02:43:24;;;;;;;0.13;0.10;;;;;;;;;;5014090;28;20022;-70
2021/12/14 02:45:50;;;;;;;0.22;0.00;;;;;;;;;;5012841;28;20065;-70
2021/12/14 02:48:15;;;;;;;0.57;0.17;;;;;;;;;;5012713;28;20096;-70
2021/12/14 02:50:40;;;;;;;0.45;0.13;;;;;;;;;;5013698;28;20030;-70
2021/12/14 02:53:06;;;;;;;0.35;0.10;;;;;;;;;;5013710;28;20034;-70
2021/12/14 02:55:31;;;;;;;0.40;0.00;;;;;;;;;;5013438;28;20018;-71
2021/12/14 02:57:59;;;;;;;0.70;0.10;;;;;;;;;;5013782;28;20480;-69
2021/12/14 03:00:32;;;;;;;0.73;0.10;;;;;;;;;;5013482;28;20021;-69
2021/12/14 03:02:58;;;;;;;0.45;0.10;;;;;;;;;;5013500;28;20034;-70
2021/12/14 03:05:26;;;;;;;0.30;0.10;;;;;;;;;;5013378;28;20018;-70
2021/12/14 03:08:01;;;;;;;0.40;0.00;;;;;;;;;;5013492;28;20021;-70
2021/12/14 03:12:56;;;;;;;0.17;0.10;;;;;;;;;;5013609;28;20013;-69
2021/12/14 03:15:29;;;;;;;0.50;0.25;;;;;;;;;;5013315;28;20505;-70
2021/12/14 03:17:57;;;;;;;0.43;0.10;;;;;;;;;;5013457;28;20025;-70
2021/12/14 03:20:34;;;;;;;0.20;0.10;;;;;;;;;;5013083;28;20105;-69
2021/12/14 03:23:01;;;;;;;0.50;0.20;;;;;;;;;;5013313;28;20041;-70
2021/12/14 03:25:27;;;;;;;0.60;0.10;;;;;;;;;;5012881;28;20068;-69
2021/12/14 03:27:53;;;;;;;1.25;0.30;;;;;;;;;;5013490;28;20026;-70
2021/12/14 03:30:23;;;;;;;0.63;0.10;;;;;;;;;;5013000;28;20076;-70
2021/12/14 03:32:48;;;;;;;0.20;0.10;;;;;;;;;;5013352;28;20466;-70
2021/12/14 03:35:13;;;;;;;0.35;0.10;;;;;;;;;;5013013;28;20026;-70
2021/12/14 03:37:39;;;;;;;0.10;0.10;;;;;;;;;;5012784;28;20528;-70
2021/12/14 03:40:05;;;;;;;0.43;0.10;;;;;;;;;;5012868;28;20057;-70
2021/12/14 03:42:37;;;;;;;0.20;0.10;;;;;;;;;;5012567;28;20545;-70
2021/12/14 03:45:05;;;;;;;1.20;0.20;;;;;;;;;;5012932;28;20385;-70
2021/12/14 03:47:32;;;;;;;0.22;0.00;;;;;;;;;;5012636;28;20018;-70
2021/12/14 03:50:09;;;;;;;0.10;0.10;;;;;;;;;;5012885;28;20022;-70
2021/12/14 03:52:36;;;;;;;0.43;0.10;;;;;;;;;;5012634;28;20079;-71
2021/12/14 03:55:04;;;;;;;1.02;0.10;;;;;;;;;;5012708;28;20549;-71
2021/12/14 03:57:29;;;;;;;0.90;0.10;;;;;;;;;;5027251;28;20022;-69
2021/12/14 03:59:54;;;;;;;0.67;0.10;;;;;;;;;;5012762;28;20434;-70
2021/12/14 04:02:20;;;;;;;1.27;0.30;;;;;;;;;;5027576;28;20279;-69
2021/12/14 04:04:53;;;;;;;0.30;0.17;;;;;;;;;;5012507;28;20697;-70
2021/12/14 04:07:19;;;;;;;0.10;0.00;;;;;;;;;;5012651;28;20026;-70
2021/12/14 04:09:44;;;;;;;0.90;0.10;;;;;;;;;;5012355;28;20021;-70
2021/12/14 04:12:13;;;;;;;0.63;0.10;;;;;;;;;;5011232;28;20022;-71
2021/12/14 04:14:40;;;;;;;0.73;0.10;;;;;;;;;;5012652;28;20116;-70
2021/12/14 04:17:05;;;;;;;0.52;0.15;;;;;;;;;;5012526;28;20053;-69
2021/12/14 04:19:31;;;;;;;0.45;0.30;;;;;;;;;;5012250;28;20026;-69
2021/12/14 04:22:00;;;;;;;0.30;0.10;;;;;;;;;;5012599;28;20018;-69
2021/12/14 04:24:28;;;;;;;0.35;0.20;;;;;;;;;;5012206;28;20073;-70
2021/12/14 04:26:55;;;;;;;0.60;0.10;;;;;;;;;;5012483;28;20056;-70
2021/12/14 04:29:20;;;;;;;0.32;0.10;;;;;;;;;;5027574;28;20030;-70
2021/12/14 04:31:46;;;;;;;0.88;0.20;;;;;;;;;;5012012;28;20022;-71
2021/12/14 04:34:14;;;;;;;0.52;0.13;;;;;;;;;;5012281;28;20104;-70
2021/12/14 04:36:40;;;;;;;0.85;0.30;;;;;;;;;;5012280;28;20010;-70
2021/12/14 04:52:55;;;;;;;0.28;0.08;;;;;;;;;;5012404;28;20025;-70
2021/12/14 04:55:20;;;;;;;0.32;0.13;;;;;;;;;;5011839;28;20022;-70
2021/12/14 04:57:46;;;;;;;0.30;0.00;;;;;;;;;;5012046;28;20021;-69
2021/12/14 05:00:14;;;;;;;0.63;0.30;;;;;;;;;;5012023;28;20466;-70
2021/12/14 05:02:39;;;;;;;0.15;0.00;;;;;;;;;;5011863;28;20481;-70
2021/12/14 05:05:05;;;;;;;0.20;0.00;;;;;;;;;;5012042;28;20109;-69
2021/12/14 05:10:06;;;;;;;0.52;0.20;;;;;;;;;;5014513;28;20030;-68
2021/12/14 05:12:32;;;;;;;0.55;0.20;;;;;;;;;;5030517;28;20084;-69
2021/12/14 05:14:58;;;;;;;0.10;0.10;;;;;;;;;;5015616;28;20029;-69
2021/12/14 05:17:25;;;;;;;0.55;0.20;;;;;;;;;;5015425;28;20041;-70
2021/12/14 05:19:51;;;;;;;0.38;0.22;;;;;;;;;;5015563;28;20024;-68
2021/12/14 05:22:19;;;;;;;0.30;0.10;;;;;;;;;;5015444;28;20017;-69
2021/12/14 05:24:52;;;;;;;1.13;0.08;;;;;;;;;;5030832;28;20347;-70
2021/12/14 05:27:28;;;;;;;0.30;0.05;;;;;;;;;;5015398;28;20048;-70
2021/12/14 05:30:00;;;;;;;0.13;0.00;;;;;;;;;;5030634;28;20029;-70
2021/12/14 05:32:26;;;;;;;0.47;0.10;;;;;;;;;;5015474;28;20105;-69
2021/12/14 05:34:52;;;;;;;0.28;0.17;;;;;;;;;;5015242;28;20124;-70
2021/12/14 05:37:19;;;;;;;0.40;0.20;;;;;;;;;;5015228;28;20489;-69
2021/12/14 05:39:50;;;;;;;0.28;0.10;;;;;;;;;;5015023;28;20263;-70
2021/12/14 05:45:05;;;;;;;0.50;0.10;;;;;;;;;;4995820;28;20121;-69
2021/12/14 05:47:31;;;;;;;0.70;0.10;;;;;;;;;;4995224;28;20026;-70
2021/12/14 05:49:56;;;;;;;0.50;0.10;;;;;;;;;;4995433;28;20069;-70
2021/12/14 05:52:23;;;;;;;0.38;0.00;;;;;;;;;;5010795;28;20259;-70
2021/12/14 05:54:49;;;;;;;0.65;0.05;;;;;;;;;;4995149;28;20026;-70
2021/12/14 05:57:18;;;;;;;0.45;0.10;;;;;;;;;;5010362;28;20412;-70
2021/12/14 05:59:44;;;;;;;0.45;0.10;;;;;;;;;;4995156;28;20121;-70
2021/12/14 06:02:09;;;;;;;0.10;0.10;;;;;;;;;;5009909;28;20118;-70
2021/12/14 06:04:37;;;;;;;1.23;0.03;;;;;;;;;;4995005;28;20026;-70
2021/12/14 06:07:06;;;;;;;0.10;0.08;;;;;;;;;;4995083;28;20053;-69
2021/12/14 06:09:33;;;;;;;0.50;0.17;;;;;;;;;;4994851;28;20068;-70
2021/12/14 06:12:01;;;;;;;0.65;0.13;;;;;;;;;;4995151;28;20033;-71
2021/12/14 06:14:27;;;;;;;0.10;0.00;;;;;;;;;;4994701;28;20027;-70
2021/12/14 06:16:58;;;;;;;2.47;0.38;;;;;;;;;;4994990;28;20031;-69
2021/12/14 06:19:25;;;;;;;0.47;0.10;;;;;;;;;;4994440;28;20019;-69
2021/12/14 06:22:10;;;;;;;0.50;0.00;;;;;;;;;;4994855;28;20026;-69
2021/12/14 06:24:37;;;;;;;0.00;0.00;;;;;;;;;;4993987;28;20430;-70
2021/12/14 06:27:04;;;;;;;0.38;0.32;;;;;;;;;;4995068;28;20093;-69
2021/12/14 06:29:31;;;;;;;0.70;0.30;;;;;;;;;;4994559;28;20402;-68
2021/12/14 06:31:58;;;;;;;0.25;0.10;;;;;;;;;;4994762;28;20018;-69
2021/12/14 06:34:28;;;;;;;0.40;0.00;;;;;;;;;;4994708;28;20019;-70
2021/12/14 06:37:19;;;;;;;0.10;0.10;;;;;;;;;;4994520;28;20018;-69
2021/12/14 06:40:05;;;;;;;0.10;0.10;;;;;;;;;;4993114;28;20018;-70
2021/12/14 06:42:30;;;;;;;0.38;0.10;;;;;;;;;;4995119;28;20015;-69
2021/12/14 06:45:13;;;;;;;1.25;0.20;;;;;;;;;;5014018;28;20029;-70
2021/12/14 06:47:39;;;;;;;1.65;0.10;;;;;;;;;;5013692;28;20063;-69
2021/12/14 06:50:09;;;;;;;0.30;0.10;;;;;;;;;;5013773;28;20457;-70
2021/12/14 06:52:35;;;;;;;0.30;0.10;;;;;;;;;;5013644;28;20496;-69
2021/12/14 06:55:00;;;;;;;0.35;0.10;;;;;;;;;;5013810;28;20026;-68
2021/12/14 06:57:25;;;;;;;0.28;0.10;;;;;;;;;;5013558;28;20029;-68
2021/12/14 06:59:53;;;;;;;0.55;0.30;;;;;;;;;;5014033;28;20080;-68
2021/12/14 07:02:20;;;;;;;0.57;0.20;;;;;;;;;;5013417;28;20042;-68
2021/12/14 07:04:49;;;;;;;0.98;0.10;;;;;;;;;;5028633;28;20030;-69
2021/12/14 07:07:17;;;;;;;0.30;0.00;;;;;;;;;;5013533;28;20474;-68
2021/12/14 07:09:48;;;;;;;0.30;0.10;;;;;;;;;;5012608;28;20127;-68
2021/12/14 07:12:18;;;;;;;0.10;0.10;;;;;;;;;;5013362;28;20022;-68
2021/12/14 07:14:43;;;;;;;0.17;0.10;;;;;;;;;;5013115;28;20036;-68
2021/12/14 07:17:10;;;;;;;0.20;0.08;;;;;;;;;;5013451;28;20100;-68
2021/12/14 07:19:53;;;;;;;0.75;0.10;;;;;;;;;;5013121;28;20254;-68
2021/12/14 07:22:28;;;;;;;1.20;0.15;;;;;;;;;;5028393;28;20403;-68
2021/12/14 07:25:03;;;;;;;0.63;0.17;;;;;;;;;;5013549;28;20101;-69
2021/12/14 07:27:30;;;;;;;1.35;0.20;;;;;;;;;;5012282;28;20065;-69
2021/12/14 07:30:27;;;;;;;0.52;0.10;;;;;;;;;;5012232;28;20473;-70
2021/12/14 07:32:52;;;;;;;0.30;0.10;;;;;;;;;;4968664;28;20130;-70
2021/12/14 07:35:21;;;;;;;0.60;0.20;;;;;;;;;;4969288;28;20093;-69
2021/12/14 07:37:46;;;;;;;0.40;0.03;;;;;;;;;;4969118;28;20257;-68
2021/12/14 07:40:12;;;;;;;0.22;0.10;;;;;;;;;;4968860;28;20018;-68
2021/12/14 07:42:37;;;;;;;0.20;0.10;;;;;;;;;;4986542;28;20061;-68
2021/12/14 07:45:03;;;;;;;0.75;0.15;;;;;;;;;;4975885;28;20062;-69
2021/12/14 07:47:28;;;;;;;0.30;0.10;;;;;;;;;;4980225;28;20030;-68
2021/12/14 07:49:55;;;;;;;0.13;0.13;;;;;;;;;;4987911;28;20030;-68
2021/12/14 07:52:22;;;;;;;0.35;0.10;;;;;;;;;;4988969;28;20299;-68
2021/12/14 07:54:49;;;;;;;0.60;0.10;;;;;;;;;;4970540;28;20426;-69
2021/12/14 07:57:26;;;;;;;0.30;0.00;;;;;;;;;;4970236;28;20518;-69
2021/12/14 07:59:54;;;;;;;0.60;0.10;;;;;;;;;;4963826;28;20023;-70
2021/12/14 08:02:21;;;;;;;0.55;0.10;;;;;;;;;;4956758;28;20022;-69
2021/12/14 08:04:48;;;;;;;0.52;0.03;;;;;;;;;;4969806;28;20279;-68
2021/12/14 08:07:28;;;;;;;0.65;0.10;;;;;;;;;;4970594;28;20483;-69
2021/12/14 08:09:54;;;;;;;2.08;0.40;;;;;;;;;;5033737;28;20064;-68
2021/12/14 08:12:38;;;;;;;0.55;0.20;;;;;;;;;;5007677;28;20026;-67
2021/12/14 08:15:07;;;;;;;1.35;0.20;;;;;;;;;;5012048;28;20417;-69
2021/12/14 08:17:33;;;;;;;0.35;0.10;;;;;;;;;;5019418;28;20025;-68
2021/12/14 08:19:58;;;;;;;0.55;0.10;;;;;;;;;;5011728;28;20014;-68
2021/12/14 08:22:28;;;;;;;1.20;0.17;;;;;;;;;;5024730;28;20101;-67
2021/12/14 08:24:53;;;;;;;0.57;0.20;;;;;;;;;;5018619;28;20267;-69
2021/12/14 08:27:22;;;;;;;0.73;0.10;;;;;;;;;;5012172;28;20497;-68
2021/12/14 08:29:49;;;;;;;0.10;0.00;;;;;;;;;;5012338;28;20026;-68
2021/12/14 08:32:20;;;;;;;0.52;0.35;;;;;;;;;;5012204;28;20034;-68
2021/12/14 08:34:46;;;;;;;0.55;0.10;;;;;;;;;;5012241;28;20374;-68
2021/12/14 08:37:13;;;;;;;0.57;0.10;;;;;;;;;;5012693;28;20049;-69
2021/12/14 08:39:42;;;;;;;1.02;0.03;;;;;;;;;;5014878;28;20397;-68
2021/12/14 08:42:14;;;;;;;0.15;0.00;;;;;;;;;;5024373;28;20487;-69
2021/12/14 08:44:41;;;;;;;0.50;0.20;;;;;;;;;;5036556;28;20025;-69
2021/12/14 08:47:10;;;;;;;0.40;0.10;;;;;;;;;;5025025;28;20013;-69
2021/12/14 08:49:36;;;;;;;0.40;0.10;;;;;;;;;;5024811;28;20674;-70
2021/12/14 08:52:02;;;;;;;2.80;0.38;;;;;;;;;;5016595;28;20033;-69
2021/12/14 08:54:29;;;;;;;0.20;0.10;;;;;;;;;;5017166;28;20432;-70
2021/12/14 08:57:00;;;;;;;0.20;0.00;;;;;;;;;;5028051;28;20018;-70
2021/12/14 08:59:26;;;;;;;0.15;0.00;;;;;;;;;;5027668;28;20033;-70
2021/12/14 09:01:51;;;;;;;0.15;0.00;;;;;;;;;;5017729;28;20024;-70
2021/12/14 09:04:19;;;;;;;1.05;0.10;;;;;;;;;;5019451;28;20025;-70
2021/12/14 09:06:48;;;;;;;0.28;0.10;;;;;;;;;;5045189;28;20405;-70
2021/12/14 09:09:14;;;;;;;0.30;0.10;;;;;;;;;;5020491;28;20067;-70
2021/12/14 09:11:41;;;;;;;0.25;0.00;;;;;;;;;;5034949;28;20032;-69
2021/12/14 09:14:13;;;;;;;0.68;0.03;;;;;;;;;;5025792;28;20033;-69
2021/12/14 09:16:40;;;;;;;0.13;0.13;;;;;;;;;;5013374;28;20060;-70
2021/12/14 09:19:09;;;;;;;0.17;0.03;;;;;;;;;;5025491;28;20018;-70
2021/12/14 09:21:37;;;;;;;0.80;0.10;;;;;;;;;;5025203;28;20478;-70
2021/12/14 09:24:05;;;;;;;0.28;0.05;;;;;;;;;;5021052;28;20053;-68
2021/12/14 09:26:34;;;;;;;1.30;0.20;;;;;;;;;;5022673;28;20025;-69
2021/12/14 09:28:59;;;;;;;0.38;0.20;;;;;;;;;;5025243;28;20522;-69
2021/12/14 09:31:26;;;;;;;1.33;0.50;;;;;;;;;;5021249;28;20029;-68
2021/12/14 09:33:54;;;;;;;0.38;0.20;;;;;;;;;;5021822;28;20282;-69
2021/12/14 09:36:19;;;;;;;0.43;0.20;;;;;;;;;;5016820;28;20026;-69
2021/12/14 09:38:47;;;;;;;0.43;0.05;;;;;;;;;;5022163;28;20025;-69
2021/12/14 09:41:15;;;;;;;0.28;0.10;;;;;;;;;;5031275;28;20022;-68
2021/12/14 09:43:41;;;;;;;1.10;0.17;;;;;;;;;;5020574;28;20064;-67
2021/12/14 09:46:07;;;;;;;1.10;0.17;;;;;;;;;;5026313;28;20039;-68
2021/12/14 09:48:38;;;;;;;0.52;0.10;;;;;;;;;;5024993;28;20370;-68
2021/12/14 09:51:08;;;;;;;0.40;0.20;;;;;;;;;;5028906;28;20040;-68
2021/12/14 09:53:34;;;;;;;0.35;0.17;;;;;;;;;;5047976;28;20488;-68
2021/12/14 09:56:00;;;;;;;0.20;0.10;;;;;;;;;;5018127;28;20105;-68
2021/12/14 09:58:27;;;;;;;0.20;0.00;;;;;;;;;;5021741;28;20640;-67
2021/12/14 10:00:58;;;;;;;0.90;0.10;;;;;;;;;;5018264;28;20026;-69
2021/12/14 10:03:24;;;;;;;0.28;0.10;;;;;;;;;;5021661;28;20124;-69
2021/12/14 10:05:58;;;;;;;0.35;0.00;;;;;;;;;;5017724;28;20270;-69
2021/12/14 10:08:26;;;;;;;0.57;0.10;;;;;;;;;;5012134;28;20030;-69
2021/12/14 10:11:02;;;;;;;0.57;0.10;;;;;;;;;;5006363;28;20021;-68
2021/12/14 10:13:28;;;;;;;0.45;0.10;;;;;;;;;;5007016;28;20477;-68
2021/12/14 10:15:54;;;;;;;1.42;0.43;;;;;;;;;;5023860;28;20104;-69
2021/12/14 10:18:19;;;;;;;0.38;0.10;;;;;;;;;;5019844;28;20585;-69
2021/12/14 10:20:51;;;;;;;0.55;0.20;;;;;;;;;;5014284;28;20377;-68
2021/12/14 10:23:18;;;;;;;0.85;0.28;;;;;;;;;;5018837;28;20026;-68
2021/12/14 10:25:44;;;;;;;0.93;0.20;;;;;;;;;;5012457;28;20474;-69
2021/12/14 10:28:09;;;;;;;0.73;0.20;;;;;;;;;;5013658;28;20035;-68
2021/12/14 10:30:38;;;;;;;0.05;0.05;;;;;;;;;;5014725;28;20026;-68
2021/12/14 10:33:04;;;;;;;0.63;0.10;;;;;;;;;;5019619;28;20014;-68
2021/12/14 10:35:35;;;;;;;0.40;0.10;;;;;;;;;;5014053;28;20022;-69
2021/12/14 10:43:33;;;;;;;0.22;0.10;;;;;;;;;;5013716;28;20377;-69
2021/12/14 10:46:19;;;;;;;0.30;0.10;;;;;;;;;;5016691;28;20013;-69
2021/12/14 10:48:45;;;;;;;0.20;0.10;;;;;;;;;;5014351;28;20037;-69
2021/12/14 10:51:12;;;;;;;0.80;0.20;;;;;;;;;;5025069;28;20040;-71
2021/12/14 10:53:41;;;;;;;1.45;0.20;;;;;;;;;;5013296;28;20069;-69
2021/12/14 10:56:11;;;;;;;1.15;0.20;;;;;;;;;;5013108;28;20435;-69
2021/12/14 10:58:37;;;;;;;0.43;0.10;;;;;;;;;;5016228;28;20473;-70
2021/12/14 11:01:08;;;;;;;0.82;0.17;;;;;;;;;;5015143;28;20113;-68
2021/12/14 11:03:36;;;;;;;0.20;0.20;;;;;;;;;;5027638;28;20041;-70
2021/12/14 11:06:03;;;;;;;2.78;0.25;;;;;;;;;;5012973;28;20025;-68
2021/12/14 11:11:15;;;;;;;2.00;0.43;;;;;;;;;;5013509;28;20029;-70
2021/12/14 11:13:43;;;;;;;1.02;0.38;;;;;;;;;;5018034;28;20120;-69
2021/12/14 11:16:16;;;;;;;0.47;0.32;;;;;;;;;;5014360;28;20072;-70
2021/12/14 11:18:42;;;;;;;0.32;0.08;;;;;;;;;;5012906;28;20068;-70
2021/12/14 11:21:08;;;;;;;0.35;0.20;;;;;;;;;;5011354;28;20048;-69
2021/12/14 11:23:36;;;;;;;0.45;0.10;;;;;;;;;;5019873;28;20053;-70
2021/12/14 11:26:04;;;;;;;1.48;0.10;;;;;;;;;;5013175;28;20025;-69
2021/12/14 11:28:33;;;;;;;0.20;0.10;;;;;;;;;;5012901;28;20042;-70
2021/12/14 11:31:05;;;;;;;0.30;0.10;;;;;;;;;;5013250;28;20018;-70
2021/12/14 11:33:32;;;;;;;0.40;0.22;;;;;;;;;;5025226;28;20044;-70
2021/12/14 11:36:16;;;;;;;0.77;0.20;;;;;;;;;;5048304;28;20010;-71
2021/12/14 11:38:42;;;;;;;0.70;0.15;;;;;;;;;;5027546;28;20024;-71
2021/12/14 11:41:26;;;;;;;1.60;0.17;;;;;;;;;;5013086;28;20101;-70
2021/12/14 11:43:55;;;;;;;0.35;0.15;;;;;;;;;;5013027;28;20026;-70
2021/12/14 11:46:20;;;;;;;0.95;0.10;;;;;;;;;;5030236;28;20033;-70
2021/12/14 11:48:45;;;;;;;0.22;0.10;;;;;;;;;;5032292;28;20021;-70
2021/12/14 11:51:11;;;;;;;0.75;0.10;;;;;;;;;;5026177;28;20018;-71
2021/12/14 11:53:37;;;;;;;0.10;0.10;;;;;;;;;;5013076;28;20028;-71
2021/12/14 11:56:02;;;;;;;0.30;0.10;;;;;;;;;;5017246;28;20014;-70
2021/12/14 11:58:31;;;;;;;0.30;0.10;;;;;;;;;;5011425;28;20017;-70
2021/12/14 12:01:14;;;;;;;0.00;0.00;;;;;;;;;;5012269;28;20488;-71
2021/12/14 12:03:41;;;;;;;0.40;0.20;;;;;;;;;;5010927;28;20048;-70
2021/12/14 12:09:28;;;;;;;0.55;0.20;;;;;;;;;;5011281;28;20276;-69
2021/12/14 12:09:33;;;;;;;0.30;0.13;;;;;;;;;;5008889;28;20034;-70
2021/12/14 12:12:01;;;;;;;0.10;0.10;;;;;;;;;;5013121;28;20025;-69
2021/12/14 12:14:29;;;;;;;1.35;0.20;;;;;;;;;;5014156;28;20084;-69
2021/12/14 12:16:59;;;;;;;0.40;0.10;;;;;;;;;;5030766;28;20063;-69
2021/12/14 12:19:26;;;;;;;1.45;0.10;;;;;;;;;;5037747;28;20014;-67
2021/12/14 12:21:52;;;;;;;0.20;0.20;;;;;;;;;;5034637;28;20461;-69
2021/12/14 12:24:35;;;;;;;0.45;0.20;;;;;;;;;;5020606;28;20072;-70
2021/12/14 12:27:19;;;;;;;0.93;0.10;;;;;;;;;;5033606;28;20064;-69
2021/12/14 12:29:45;;;;;;;2.23;0.67;;;;;;;;;;5021290;28;20034;-70
2021/12/14 12:32:18;;;;;;;3.70;0.20;;;;;;;;;;5019630;28;20409;-69
2021/12/14 12:34:45;;;;;;;0.77;0.20;;;;;;;;;;5019062;28;20032;-70
2021/12/14 12:37:11;;;;;;;0.17;0.10;;;;;;;;;;5024598;28;20022;-70
2021/12/14 12:39:37;;;;;;;0.82;0.20;;;;;;;;;;5022189;28;20022;-70
2021/12/14 12:42:03;;;;;;;0.68;0.17;;;;;;;;;;5026246;28;20453;-70
2021/12/14 12:44:38;;;;;;;1.90;0.45;;;;;;;;;;5018327;28;20544;-70
2021/12/14 12:47:03;;;;;;;;;;;;;;;;;;5018095;28;20024;-70
2021/12/14 12:49:29;;;;;;;0.60;0.20;;;;;;;;;;5033415;28;19909;-69
2021/12/14 12:52:05;;;;;;;1.52;0.25;;;;;;;;;;5015272;28;20322;-69
2021/12/14 12:54:31;;;;;;;0.55;0.10;;;;;;;;;;5022211;28;20551;-70
2021/12/14 12:57:06;;;;;;;0.30;0.15;;;;;;;;;;5017283;28;20018;-69
2021/12/14 12:59:37;;;;;;;0.10;0.10;;;;;;;;;;5023614;28;20487;-70
2021/12/14 13:02:17;;;;;;;0.77;0.20;;;;;;;;;;5041728;28;20389;-69
2021/12/14 13:04:44;;;;;;;0.60;0.30;;;;;;;;;;5030675;28;20455;-69
2021/12/14 13:07:09;;;;;;;0.30;0.10;;;;;;;;;;5026013;28;20032;-69
2021/12/14 13:09:53;;;;;;;1.45;0.10;;;;;;;;;;5017628;28;20022;-69
2021/12/14 13:12:35;;;;;;;0.98;0.20;;;;;;;;;;5028416;28;20017;-69
2021/12/14 13:15:01;;;;;;;0.55;0.10;;;;;;;;;;5029280;28;20125;-70
2021/12/14 13:17:26;;;;;;;0.85;0.13;;;;;;;;;;5017266;28;20113;-69
2021/12/14 13:19:58;;;;;;;1.55;0.10;;;;;;;;;;5018073;28;20022;-69
2021/12/14 13:22:23;;;;;;;0.00;0.00;;;;;;;;;;5018076;28;20038;-69
2021/12/14 13:24:51;;;;;;;0.73;0.38;;;;;;;;;;5026590;28;20072;-70
2021/12/14 13:27:20;;;;;;;0.55;0.20;;;;;;;;;;5022888;28;20116;-69
2021/12/14 13:29:48;;;;;;;0.47;0.30;;;;;;;;;;5024327;28;20080;-68
2021/12/14 13:32:15;;;;;;;0.75;0.28;;;;;;;;;;5033856;28;20033;-69
2021/12/14 13:34:59;;;;;;;0.68;0.13;;;;;;;;;;5017915;28;20041;-67
2021/12/14 13:37:31;;;;;;;0.47;0.08;;;;;;;;;;5050427;28;20418;-69
2021/12/14 13:39:56;;;;;;;0.50;0.20;;;;;;;;;;5021119;28;20369;-69
2021/12/14 13:42:28;;;;;;;2.17;0.10;;;;;;;;;;5025119;28;20100;-69
2021/12/14 13:44:54;;;;;;;0.75;0.05;;;;;;;;;;5031584;28;20583;-69
2021/12/14 13:47:23;;;;;;;0.20;0.10;;;;;;;;;;5019668;28;20323;-68
2021/12/14 13:49:49;;;;;;;0.20;0.10;;;;;;;;;;5011065;28;20049;-69
2021/12/14 13:52:16;;;;;;;0.80;0.20;;;;;;;;;;5034961;28;20021;-69
2021/12/14 13:55:00;;;;;;;0.47;0.10;;;;;;;;;;5034516;28;20023;-69
2021/12/14 13:57:25;;;;;;;0.40;0.10;;;;;;;;;;5034501;28;20021;-69
2021/12/14 13:59:50;;;;;;;0.07;0.00;;;;;;;;;;5034608;28;20117;-70
2021/12/14 14:02:15;;;;;;;0.47;0.05;;;;;;;;;;5034309;28;20059;-69
2021/12/14 14:04:40;;;;;;;0.87;0.10;;;;;;;;;;5034456;28;20021;-69
2021/12/14 14:07:05;;;;;;;0.10;0.00;;;;;;;;;;5034455;28;20029;-70
2021/12/14 14:09:31;;;;;;;0.57;0.10;;;;;;;;;;5034518;28;20021;-68
2021/12/14 14:12:02;;;;;;;0.20;0.00;;;;;;;;;;5034730;28;20365;-69
2021/12/14 14:14:29;;;;;;;0.85;0.20;;;;;;;;;;5034460;28;20018;-69
2021/12/14 14:16:57;;;;;;;0.05;0.05;;;;;;;;;;5034326;28;20021;-69
2021/12/14 14:19:26;;;;;;;0.43;0.00;;;;;;;;;;5032831;28;20053;-69
2021/12/14 14:21:57;;;;;;;0.43;0.10;;;;;;;;;;5025110;28;20068;-68
2021/12/14 14:24:30;;;;;;;0.00;0.00;;;;;;;;;;5014174;28;20036;-68
2021/12/14 14:26:56;;;;;;;0.70;0.10;;;;;;;;;;5014415;28;20468;-69
2021/12/14 14:29:22;;;;;;;0.32;0.20;;;;;;;;;;5014160;28;20048;-69
2021/12/14 14:31:50;;;;;;;0.15;0.10;;;;;;;;;;5014051;28;20081;-69
2021/12/14 14:34:20;;;;;;;1.05;0.10;;;;;;;;;;5014037;28;20028;-70
2021/12/14 14:36:53;;;;;;;0.00;0.00;;;;;;;;;;5014028;28;20023;-69
2021/12/14 14:39:19;;;;;;;0.43;0.13;;;;;;;;;;5012882;28;20093;-69
2021/12/14 14:41:52;;;;;;;0.20;0.00;;;;;;;;;;5013758;28;20509;-69
2021/12/14 14:44:25;;;;;;;1.65;0.25;;;;;;;;;;5013841;28;20481;-69
2021/12/14 14:46:56;;;;;;;0.35;0.10;;;;;;;;;;5013919;28;20028;-69
2021/12/14 14:49:24;;;;;;;0.35;0.17;;;;;;;;;;5013778;28;20025;-69
2021/12/14 14:51:57;;;;;;;0.45;0.10;;;;;;;;;;5013796;28;20124;-70
2021/12/14 14:54:34;;;;;;;0.65;0.20;;;;;;;;;;5013516;28;20485;-69
2021/12/14 14:56:59;;;;;;;0.20;0.00;;;;;;;;;;5013895;28;20097;-68
2021/12/14 14:59:25;;;;;;;0.28;0.10;;;;;;;;;;5013854;28;20056;-68
2021/12/14 15:01:50;;;;;;;0.30;0.10;;;;;;;;;;5013675;28;20026;-69
2021/12/14 15:04:16;;;;;;;0.68;0.10;;;;;;;;;;5013283;28;20045;-68
2021/12/14 15:06:42;;;;;;;0.35;0.08;;;;;;;;;;5013353;28;20025;-68
2021/12/14 15:09:07;;;;;;;0.52;0.00;;;;;;;;;;5028759;28;20420;-69
2021/12/14 15:11:33;;;;;;;1.38;0.10;;;;;;;;;;5013124;28;20025;-68
2021/12/14 15:14:04;;;;;;;0.70;0.25;;;;;;;;;;5013482;28;20519;-69
2021/12/14 15:16:32;;;;;;;0.98;0.22;;;;;;;;;;5028520;28;20018;-69
2021/12/14 15:19:01;;;;;;;0.40;0.28;;;;;;;;;;5012639;28;20014;-70
2021/12/14 15:21:26;;;;;;;0.95;0.20;;;;;;;;;;5013152;28;20100;-69
2021/12/14 15:23:52;;;;;;;0.73;0.32;;;;;;;;;;5013600;28;20089;-70
2021/12/14 15:26:17;;;;;;;0.73;0.35;;;;;;;;;;5013025;28;20385;-70
2021/12/14 15:28:44;;;;;;;1.20;0.10;;;;;;;;;;5013173;28;20068;-69